Time;durP1;ratioP1;P1;durP2;ratioP2;P2;SDS_P1;SDS_P2;PMS_P1;PMS_P2;Temp;Humidity;BMP_temperature;BMP_pressure;BME280_temperature;BME280_humidity;BME280_pressure;Samples;Min_cycle;Max_cycle;Signal;HPM_P1;HPM_P2
2023/04/11 00:00:25;;;;;;;38.20;7.20;;;16.30;59.70;;;;;;5106824;28;20662;-90
2023/04/11 00:02:58;;;;;;;27.10;7.00;;;16.30;59.70;;;;;;5091977;28;20214;-91
2023/04/11 00:05:30;;;;;;;37.03;7.67;;;16.30;59.80;;;;;;5094206;28;20204;-90
2023/04/11 00:07:57;;;;;;;28.67;6.83;;;16.30;59.80;;;;;;5093986;28;20203;-91
2023/04/11 00:10:24;;;;;;;28.40;7.30;;;16.30;59.80;;;;;;5094050;28;20718;-89
2023/04/11 00:12:55;;;;;;;28.20;7.20;;;16.30;59.80;;;;;;5111371;28;20214;-89
2023/04/11 00:15:22;;;;;;;31.30;7.47;;;16.30;59.80;;;;;;5108410;28;20205;-93
2023/04/11 00:17:51;;;;;;;27.37;6.83;;;16.20;59.70;;;;;;5108012;28;20210;-91
2023/04/11 00:20:20;;;;;;;32.80;7.20;;;16.20;59.80;;;;;;5112777;28;20577;-91
2023/04/11 00:22:47;;;;;;;29.20;6.77;;;16.20;59.70;;;;;;5111539;28;20207;-91
2023/04/11 00:25:14;;;;;;;38.70;7.70;;;16.20;59.70;;;;;;5112625;28;20203;-90
2023/04/11 00:27:41;;;;;;;29.77;6.80;;;16.20;59.70;;;;;;5093577;28;20658;-92
2023/04/11 00:30:09;;;;;;;40.83;7.83;;;16.20;59.80;;;;;;5091814;28;20570;-90
2023/04/11 00:32:35;;;;;;;49.90;8.23;;;16.20;59.80;;;;;;5107407;28;20232;-91
2023/04/11 00:35:02;;;;;;;32.40;7.33;;;16.10;59.60;;;;;;5091003;28;20202;-90
2023/04/11 00:37:34;;;;;;;34.53;7.10;;;16.10;59.60;;;;;;5094336;28;20714;-90
2023/04/11 00:40:04;;;;;;;27.40;7.47;;;16.10;59.70;;;;;;5110431;28;20274;-90
2023/04/11 00:42:31;;;;;;;34.00;7.80;;;16.10;59.70;;;;;;5100298;28;20686;-90
2023/04/11 00:44:58;;;;;;;44.97;7.70;;;16.10;59.70;;;;;;5091202;28;20198;-93
2023/04/11 00:47:25;;;;;;;30.63;7.10;;;16.10;59.70;;;;;;5090932;28;20203;-92
2023/04/11 00:49:52;;;;;;;28.90;6.57;;;16.10;59.70;;;;;;5091049;28;20210;-90
2023/04/11 00:52:20;;;;;;;29.67;6.77;;;16.10;59.70;;;;;;5095129;28;20203;-89
2023/04/11 00:54:48;;;;;;;35.77;7.50;;;16.00;59.60;;;;;;5100590;27;20205;-90
2023/04/11 00:57:15;;;;;;;28.30;6.00;;;16.00;59.60;;;;;;5104750;28;20271;-90
2023/04/11 00:59:47;;;;;;;38.10;7.40;;;15.90;59.50;;;;;;5107506;28;20202;-91
2023/04/11 01:02:14;;;;;;;28.77;6.47;;;16.00;59.60;;;;;;5113340;27;20242;-91
2023/04/11 01:04:44;;;;;;;40.93;7.60;;;16.00;59.70;;;;;;5111888;28;20187;-91
2023/04/11 01:07:12;;;;;;;21.63;6.37;;;16.00;59.60;;;;;;5113624;28;20203;-91
2023/04/11 01:09:40;;;;;;;34.63;6.97;;;16.00;59.60;;;;;;5112169;28;20199;-91
2023/04/11 01:12:10;;;;;;;36.57;7.37;;;16.00;59.60;;;;;;5111506;28;20286;-92
2023/04/11 01:14:37;;;;;;;31.70;7.43;;;16.00;59.70;;;;;;5102674;28;20213;-93
2023/04/11 01:17:06;;;;;;;27.57;6.27;;;16.00;59.60;;;;;;5111633;28;20196;-90
2023/04/11 01:19:34;;;;;;;37.20;7.13;;;16.10;59.80;;;;;;5099198;28;20196;-95
2023/04/11 01:22:01;;;;;;;25.93;6.70;;;16.00;59.70;;;;;;5099514;28;20688;-91
2023/04/11 01:24:33;;;;;;;37.70;7.10;;;15.90;59.60;;;;;;5102218;28;20558;-90
2023/04/11 01:27:01;;;;;;;23.03;5.70;;;16.00;59.70;;;;;;5092832;27;20306;-93
2023/04/11 01:29:27;;;;;;;28.47;6.83;;;15.90;59.60;;;;;;5092830;28;20260;-92
2023/04/11 01:31:54;;;;;;;31.47;6.90;;;15.90;59.60;;;;;;5091053;28;20722;-92
2023/04/11 01:34:22;;;;;;;32.10;6.77;;;15.90;59.60;;;;;;5090337;28;20225;-92
2023/04/11 01:36:50;;;;;;;40.20;7.53;;;15.90;59.60;;;;;;5104032;28;20203;-93
2023/04/11 01:39:17;;;;;;;30.93;6.63;;;15.80;59.50;;;;;;5109369;28;20201;-93
2023/04/11 01:41:46;;;;;;;34.13;7.00;;;15.90;59.60;;;;;;5096923;28;20207;-92
2023/04/11 01:44:13;;;;;;;38.40;7.17;;;15.80;59.50;;;;;;5098160;28;20192;-91
2023/04/11 01:46:40;;;;;;;64.43;8.73;;;15.80;59.50;;;;;;5107891;28;20216;-92
2023/04/11 01:49:07;;;;;;;27.47;5.90;;;15.90;59.70;;;;;;5102178;28;20213;-91
2023/04/11 01:51:35;;;;;;;39.67;7.40;;;15.80;59.50;;;;;;5098394;28;20208;-92
2023/04/11 01:54:02;;;;;;;28.77;6.27;;;15.80;59.60;;;;;;5090256;28;20236;-90
2023/04/11 01:56:29;;;;;;;35.90;6.47;;;15.70;59.50;;;;;;5104633;28;20264;-90
2023/04/11 01:58:58;;;;;;;37.40;7.07;;;15.80;59.50;;;;;;5106807;28;20566;-91
2023/04/11 02:01:25;;;;;;;21.83;5.93;;;15.70;59.50;;;;;;5095475;28;20209;-91
2023/04/11 02:03:52;;;;;;;28.60;6.53;;;15.80;59.50;;;;;;5090382;28;20210;-90
2023/04/11 02:06:19;;;;;;;28.27;5.97;;;15.70;59.50;;;;;;5096023;28;20202;-91
2023/04/11 02:08:46;;;;;;;22.33;5.67;;;15.70;59.50;;;;;;5101007;28;20282;-91
2023/04/11 02:11:13;;;;;;;32.43;7.37;;;15.70;59.50;;;;;;5091194;28;20659;-90
2023/04/11 02:13:39;;;;;;;25.87;6.40;;;15.70;59.50;;;;;;5104465;28;20590;-90
2023/04/11 02:16:13;;;;;;;51.00;8.17;;;15.70;59.60;;;;;;5089810;28;20328;-90
2023/04/11 02:18:43;;;;;;;52.33;8.13;;;15.70;59.50;;;;;;5102526;28;20956;-90
2023/04/11 02:21:12;;;;;;;33.17;6.17;;;15.70;59.50;;;;;;5102388;28;20209;-88
2023/04/11 02:23:39;;;;;;;26.10;6.23;;;15.70;59.50;;;;;;5088300;28;20635;-90
2023/04/11 02:26:06;;;;;;;28.80;5.97;;;15.70;59.60;;;;;;5088439;28;20319;-91
2023/04/11 02:28:33;;;;;;;35.40;7.57;;;15.60;59.50;;;;;;5087578;28;20681;-90
2023/04/11 02:31:00;;;;;;;27.57;6.60;;;15.70;59.60;;;;;;5090273;28;20203;-89
2023/04/11 02:33:28;;;;;;;24.80;6.00;;;15.60;59.50;;;;;;5102542;28;20213;-90
2023/04/11 02:35:55;;;;;;;31.83;6.17;;;15.60;59.50;;;;;;5115276;28;20201;-90
2023/04/11 02:38:22;;;;;;;33.47;6.80;;;15.60;59.50;;;;;;5107241;28;20191;-90
2023/04/11 02:40:49;;;;;;;43.77;7.60;;;15.60;59.50;;;;;;5099324;28;20906;-90
2023/04/11 02:43:16;;;;;;;31.60;7.23;;;15.50;59.50;;;;;;5090444;28;20195;-90
2023/04/11 02:45:43;;;;;;;24.13;5.73;;;15.60;59.50;;;;;;5094385;28;20211;-89
2023/04/11 02:48:15;;;;;;;27.93;5.90;;;15.50;59.50;;;;;;5096085;28;20211;-91
2023/04/11 02:50:44;;;;;;;24.87;5.80;;;15.50;60.10;;;;;;5108583;28;20582;-89
2023/04/11 02:53:11;;;;;;;31.17;6.37;;;15.50;59.50;;;;;;5108302;28;20871;-90
2023/04/11 02:55:38;;;;;;;27.87;6.00;;;15.50;59.50;;;;;;5092667;28;20206;-89
2023/04/11 02:58:05;;;;;;;21.93;5.83;;;15.50;59.50;;;;;;5102412;28;20277;-91
2023/04/11 03:00:31;;;;;;;26.80;6.00;;;15.60;59.60;;;;;;5105440;28;20209;-90
2023/04/11 03:02:58;;;;;;;28.60;6.67;;;15.50;59.50;;;;;;5097734;28;20202;-90
2023/04/11 03:05:27;;;;;;;33.70;6.87;;;15.50;59.50;;;;;;5108251;28;20612;-90
2023/04/11 03:07:56;;;;;;;28.27;6.23;;;15.40;59.40;;;;;;5089139;28;20214;-90
2023/04/11 03:10:23;;;;;;;35.90;6.53;;;15.50;59.50;;;;;;5089068;28;20668;-91
2023/04/11 03:12:50;;;;;;;23.43;5.47;;;15.50;59.50;;;;;;5089117;28;20206;-91
2023/04/11 03:15:17;;;;;;;39.10;6.83;;;15.50;59.50;;;;;;5102231;28;20233;-90
2023/04/11 03:17:44;;;;;;;35.67;6.73;;;15.40;59.40;;;;;;5092171;28;20208;-92
2023/04/11 03:20:12;;;;;;;29.57;6.77;;;15.40;59.40;;;;;;5107305;28;20213;-91
2023/04/11 03:22:39;;;;;;;33.93;7.63;;;15.40;59.40;;;;;;5093749;28;20286;-93
2023/04/11 03:25:08;;;;;;;33.83;6.60;;;15.40;59.50;;;;;;5087339;28;20209;-91
2023/04/11 03:27:35;;;;;;;44.30;7.17;;;15.40;59.50;;;;;;5088909;28;20203;-94
2023/04/11 03:30:02;;;;;;;32.67;6.30;;;15.40;59.50;;;;;;5102071;28;20270;-92
2023/04/11 03:32:29;;;;;;;34.90;6.57;;;15.40;59.40;;;;;;5102520;28;20667;-92
2023/04/11 03:35:01;;;;;;;22.20;6.37;;;15.30;59.40;;;;;;5093164;28;20289;-95
2023/04/11 03:37:28;;;;;;;25.93;6.03;;;15.30;59.50;;;;;;5104790;28;20202;-93
2023/04/11 03:39:55;;;;;;;29.47;6.17;;;15.40;59.50;;;;;;5098776;28;20281;-92
2023/04/11 03:42:24;;;;;;;22.90;6.07;;;15.40;59.50;;;;;;5089362;28;20238;-92
2023/04/11 03:44:50;;;;;;;36.30;6.97;;;15.30;59.40;;;;;;5088377;28;20238;-91
2023/04/11 03:47:17;;;;;;;32.67;6.13;;;15.40;59.50;;;;;;5088426;28;20648;-90
2023/04/11 03:49:44;;;;;;;31.63;6.17;;;15.30;59.40;;;;;;5088035;28;20209;-93
2023/04/11 03:52:13;;;;;;;42.40;7.43;;;15.30;59.50;;;;;;5103309;28;20298;-93
2023/04/11 03:54:40;;;;;;;28.63;6.87;;;15.30;59.40;;;;;;5092772;28;20646;-93
2023/04/11 03:57:07;;;;;;;41.37;7.33;;;15.30;59.40;;;;;;5092892;28;20651;-91
2023/04/11 03:59:36;;;;;;;26.27;6.30;;;15.30;59.50;;;;;;5095672;28;20739;-92
2023/04/11 04:02:03;;;;;;;23.10;5.63;;;15.30;59.50;;;;;;5089381;28;20199;-93
2023/04/11 04:04:31;;;;;;;29.17;6.57;;;15.20;59.40;;;;;;5088612;28;20195;-94
2023/04/11 04:06:57;;;;;;;24.47;5.90;;;15.20;59.40;;;;;;5106120;28;21104;-92
2023/04/11 04:09:26;;;;;;;27.57;6.20;;;15.20;59.40;;;;;;5095783;28;20191;-89
2023/04/11 04:11:53;;;;;;;34.87;7.07;;;15.20;59.40;;;;;;5104256;28;20569;-94
2023/04/11 04:14:19;;;;;;;38.73;6.63;;;15.20;59.40;;;;;;5107772;28;20214;-92
2023/04/11 04:16:48;;;;;;;35.57;6.60;;;15.20;60.00;;;;;;5101535;28;20682;-92
2023/04/11 04:19:15;;;;;;;35.53;6.90;;;15.20;59.40;;;;;;5104420;28;20214;-91
2023/04/11 04:21:44;;;;;;;32.33;6.37;;;15.20;59.40;;;;;;5110997;28;20203;-91
2023/04/11 04:24:11;;;;;;;54.17;8.20;;;15.20;59.40;;;;;;5110480;28;20198;-91
2023/04/11 04:26:38;;;;;;;31.53;6.67;;;15.10;60.00;;;;;;5097561;28;20886;-91
2023/04/11 04:29:08;;;;;;;24.83;5.57;;;15.10;59.40;;;;;;5104618;28;20252;-94
2023/04/11 04:31:37;;;;;;;21.63;6.27;;;15.20;59.40;;;;;;5095103;28;20282;-93
2023/04/11 04:34:08;;;;;;;27.97;5.93;;;15.20;59.50;;;;;;5093253;28;20215;-93
2023/04/11 04:36:44;;;;;;;27.70;6.07;;;15.10;59.40;;;;;;5098482;28;20255;-91
2023/04/11 04:39:16;;;;;;;30.17;6.00;;;15.10;59.40;;;;;;5101875;28;20203;-91
2023/04/11 04:41:44;;;;;;;22.07;5.80;;;15.10;59.40;;;;;;5106266;28;20290;-90
2023/04/11 04:44:11;;;;;;;27.90;6.10;;;15.10;59.40;;;;;;5102396;28;20269;-90
2023/04/11 04:46:38;;;;;;;31.67;5.97;;;15.10;59.40;;;;;;5100843;28;20209;-90
2023/04/11 04:49:08;;;;;;;28.50;5.97;;;15.10;59.40;;;;;;5100104;28;20646;-90
2023/04/11 04:51:35;;;;;;;30.73;6.10;;;15.10;59.40;;;;;;5105448;28;21035;-92
2023/04/11 04:54:03;;;;;;;28.83;5.80;;;15.10;59.40;;;;;;5102043;28;20230;-91
2023/04/11 04:56:31;;;;;;;38.43;6.97;;;15.00;59.70;;;;;;5102701;28;20195;-91
2023/04/11 04:58:58;;;;;;;29.53;6.50;;;15.00;59.40;;;;;;5105451;28;20210;-90
2023/04/11 05:01:26;;;;;;;39.70;7.10;;;15.10;59.40;;;;;;5105595;28;20309;-90
2023/04/11 05:03:58;;;;;;;30.97;6.73;;;14.90;59.30;;;;;;5100341;28;20194;-89
2023/04/11 05:06:28;;;;;;;24.37;5.83;;;15.00;59.40;;;;;;5099438;28;20285;-89
2023/04/11 05:08:56;;;;;;;50.37;7.77;;;14.90;59.30;;;;;;5095332;28;20209;-90
2023/04/11 05:11:23;;;;;;;24.73;5.93;;;15.00;59.40;;;;;;5090436;28;20203;-89
2023/04/11 05:13:50;;;;;;;28.13;6.00;;;15.00;59.40;;;;;;5090032;28;20218;-89
2023/04/11 05:16:17;;;;;;;42.83;7.33;;;15.00;59.40;;;;;;5089986;28;20212;-89
2023/04/11 05:18:44;;;;;;;23.47;5.57;;;15.00;59.40;;;;;;5104988;28;20198;-90
2023/04/11 05:21:11;;;;;;;39.60;7.47;;;15.00;59.40;;;;;;5108064;28;20215;-90
2023/04/11 05:23:40;;;;;;;45.03;8.07;;;14.90;59.30;;;;;;5100069;28;20199;-89
2023/04/11 05:26:07;;;;;;;32.17;6.40;;;14.90;59.40;;;;;;5096818;28;20221;-88
2023/04/11 05:28:35;;;;;;;30.43;6.53;;;14.90;59.40;;;;;;5098158;28;20199;-88
2023/04/11 05:31:02;;;;;;;48.93;7.77;;;14.90;59.40;;;;;;5089213;28;20207;-89
2023/04/11 05:33:29;;;;;;;30.70;6.13;;;14.90;59.40;;;;;;5097974;28;20201;-89
2023/04/11 05:35:56;;;;;;;27.17;5.47;;;14.90;59.40;;;;;;5104343;28;20262;-88
2023/04/11 05:38:23;;;;;;;39.57;6.93;;;14.90;59.50;;;;;;5109572;28;20746;-89
2023/04/11 05:40:51;;;;;;;33.07;6.50;;;14.90;59.40;;;;;;5111403;28;20202;-88
2023/04/11 05:43:18;;;;;;;37.57;7.30;;;14.90;59.50;;;;;;5099798;28;20674;-89
2023/04/11 05:45:46;;;;;;;29.30;6.67;;;14.90;59.50;;;;;;5094660;28;20211;-87
2023/04/11 05:48:14;;;;;;;48.13;7.50;;;14.90;59.50;;;;;;5105449;28;20198;-91
2023/04/11 05:50:43;;;;;;;46.23;8.03;;;14.90;59.50;;;;;;5093091;28;20578;-90
2023/04/11 05:53:10;;;;;;;25.53;5.90;;;14.80;59.40;;;;;;5106031;28;20207;-89
2023/04/11 05:55:37;;;;;;;27.50;5.97;;;14.90;59.50;;;;;;5101056;28;20229;-89
2023/04/11 05:58:05;;;;;;;25.80;6.07;;;14.90;59.80;;;;;;5089711;28;20655;-90
2023/04/11 06:00:32;;;;;;;33.50;7.03;;;14.90;59.50;;;;;;5089764;28;20736;-89
2023/04/11 06:03:00;;;;;;;26.30;6.43;;;14.90;59.50;;;;;;5090075;28;20216;-89
2023/04/11 06:05:30;;;;;;;31.77;6.60;;;14.80;59.40;;;;;;5089642;28;20217;-89
2023/04/11 06:07:58;;;;;;;42.23;7.90;;;14.80;59.40;;;;;;5094940;28;20190;-90
2023/04/11 06:10:26;;;;;;;32.10;6.80;;;14.80;59.40;;;;;;5095129;28;20252;-88
2023/04/11 06:12:53;;;;;;;25.80;6.40;;;14.80;59.40;;;;;;5099023;28;20249;-89
2023/04/11 06:15:22;;;;;;;40.10;7.00;;;14.80;59.50;;;;;;5108100;28;20218;-89
2023/04/11 06:17:49;;;;;;;24.90;6.17;;;14.80;59.50;;;;;;5106142;28;20206;-91
2023/04/11 06:20:16;;;;;;;33.33;6.80;;;14.80;59.50;;;;;;5100713;28;20193;-90
2023/04/11 06:22:45;;;;;;;25.73;6.30;;;14.80;59.50;;;;;;5090046;28;20210;-88
2023/04/11 06:25:13;;;;;;;61.83;9.00;;;14.80;59.50;;;;;;5088638;28;20205;-88
2023/04/11 06:27:40;;;;;;;31.67;7.13;;;14.80;59.50;;;;;;5089394;28;20651;-89
2023/04/11 06:30:08;;;;;;;33.30;6.70;;;14.80;59.50;;;;;;5089486;28;20200;-89
2023/04/11 06:32:36;;;;;;;41.97;7.70;;;14.80;59.50;;;;;;5096812;28;20642;-89
2023/04/11 06:35:03;;;;;;;33.63;6.87;;;14.80;59.50;;;;;;5094832;28;20234;-89
2023/04/11 06:37:30;;;;;;;39.47;7.73;;;14.80;59.50;;;;;;5096170;28;20204;-89
2023/04/11 06:39:58;;;;;;;29.27;6.77;;;14.80;59.50;;;;;;5098469;28;20661;-88
2023/04/11 06:42:25;;;;;;;23.60;6.17;;;14.80;59.50;;;;;;5091979;28;20208;-90
2023/04/11 06:44:52;;;;;;;46.53;8.20;;;14.80;59.50;;;;;;5087912;28;20311;-84
2023/04/11 06:47:19;;;;;;;39.80;7.10;;;14.80;59.50;;;;;;5104010;28;20289;-91
2023/04/11 06:49:49;;;;;;;31.20;6.67;;;14.80;59.50;;;;;;5104543;28;20256;-90
2023/04/11 06:52:15;;;;;;;33.23;6.97;;;14.80;59.50;;;;;;5099546;28;20211;-90
2023/04/11 06:54:42;;;;;;;34.87;7.00;;;14.80;59.50;;;;;;5107516;28;20908;-89
2023/04/11 06:57:10;;;;;;;23.97;6.33;;;14.70;59.40;;;;;;5108412;28;21002;-90
2023/04/11 06:59:37;;;;;;;36.93;6.93;;;14.70;59.40;;;;;;5104098;27;20201;-90
2023/04/11 07:02:04;;;;;;;47.00;8.23;;;14.80;59.50;;;;;;5109116;28;20607;-91
2023/04/11 07:04:32;;;;;;;29.57;6.43;;;14.70;59.40;;;;;;5105139;28;20199;-90
2023/04/11 07:07:00;;;;;;;24.13;6.00;;;14.70;59.40;;;;;;5094839;28;20772;-91
2023/04/11 07:09:27;;;;;;;28.13;6.67;;;14.70;59.40;;;;;;5089780;28;20209;-90
2023/04/11 07:12:00;;;;;;;16.60;5.63;;;14.70;59.50;;;;;;5089748;28;20287;-91
2023/04/11 07:14:27;;;;;;;30.87;6.83;;;14.70;59.50;;;;;;5087877;28;20191;-91
2023/04/11 07:16:54;;;;;;;30.40;6.03;;;14.60;59.40;;;;;;5088812;28;20638;-91
2023/04/11 07:19:21;;;;;;;28.73;6.83;;;14.70;59.50;;;;;;5099251;28;20202;-91
2023/04/11 07:21:48;;;;;;;27.67;6.27;;;14.80;60.20;;;;;;5101146;28;20607;-89
2023/04/11 07:24:19;;;;;;;25.10;6.13;;;14.70;59.50;;;;;;5088637;28;20210;-90
2023/04/11 07:26:49;;;;;;;29.90;6.60;;;14.70;59.50;;;;;;5088253;28;20256;-90
2023/04/11 07:29:16;;;;;;;26.23;5.90;;;14.70;59.50;;;;;;5088349;28;20294;-91
2023/04/11 07:31:43;;;;;;;31.60;6.30;;;14.70;59.50;;;;;;5088493;28;20201;-90
2023/04/11 07:34:10;;;;;;;24.30;5.57;;;14.70;59.50;;;;;;5088139;28;20203;-90
2023/04/11 07:36:37;;;;;;;29.80;6.43;;;14.70;59.60;;;;;;5091628;28;20226;-91
2023/04/11 07:39:07;;;;;;;30.40;6.27;;;14.70;59.60;;;;;;5099731;28;20625;-91
2023/04/11 07:41:37;;;;;;;30.00;6.23;;;14.70;59.50;;;;;;5087942;28;20666;-91
2023/04/11 07:44:05;;;;;;;33.60;6.70;;;14.70;59.60;;;;;;5087992;28;20221;-91
2023/04/11 07:46:32;;;;;;;30.77;6.33;;;14.70;59.60;;;;;;5088154;28;20287;-91
2023/04/11 07:48:59;;;;;;;29.53;6.83;;;14.70;59.60;;;;;;5088185;28;20209;-91
2023/04/11 07:51:27;;;;;;;29.43;6.40;;;14.70;59.60;;;;;;5091415;28;20640;-91
2023/04/11 07:53:54;;;;;;;26.73;5.83;;;14.70;59.60;;;;;;5091498;28;20198;-91
2023/04/11 07:56:21;;;;;;;28.97;6.67;;;14.70;59.60;;;;;;5102667;28;20229;-91
2023/04/11 07:58:49;;;;;;;27.53;6.40;;;14.70;59.60;;;;;;5094452;28;20653;-91
2023/04/11 08:01:23;;;;;;;34.33;6.57;;;14.70;59.60;;;;;;5112344;28;20187;-91
2023/04/11 08:03:51;;;;;;;25.40;6.13;;;14.70;59.60;;;;;;5108033;28;20214;-91
2023/04/11 08:06:18;;;;;;;27.43;6.37;;;14.70;59.60;;;;;;5104073;28;20297;-90
2023/04/11 08:08:46;;;;;;;26.47;6.43;;;14.70;59.60;;;;;;5095548;28;20650;-91
2023/04/11 08:11:13;;;;;;;26.27;6.37;;;14.70;59.60;;;;;;5107764;28;20198;-92
2023/04/11 08:13:40;;;;;;;29.90;6.60;;;14.70;59.60;;;;;;5094044;28;20198;-91
2023/04/11 08:16:10;;;;;;;31.37;6.33;;;14.70;59.60;;;;;;5112621;28;20883;-91
2023/04/11 08:18:40;;;;;;;26.67;6.30;;;14.70;59.60;;;;;;5106692;28;20665;-91
2023/04/11 08:21:09;;;;;;;39.27;7.27;;;14.70;59.60;;;;;;5094330;28;20208;-91
2023/04/11 08:23:36;;;;;;;22.23;5.90;;;14.70;59.60;;;;;;5096661;28;20203;-91
2023/04/11 08:26:03;;;;;;;35.20;7.17;;;14.70;59.60;;;;;;5091189;28;20301;-92
2023/04/11 08:28:30;;;;;;;28.63;6.43;;;14.70;59.60;;;;;;5092851;28;20718;-92
2023/04/11 08:31:02;;;;;;;30.40;6.87;;;14.70;59.60;;;;;;5091916;28;20309;-93
2023/04/11 08:33:31;;;;;;;26.67;6.20;;;14.80;59.70;;;;;;5096100;28;20217;-92
2023/04/11 08:35:58;;;;;;;21.07;5.67;;;14.80;59.70;;;;;;5098558;28;20246;-92
2023/04/11 08:38:28;;;;;;;25.47;5.87;;;14.80;59.80;;;;;;5092786;28;20199;-91
2023/04/11 08:40:57;;;;;;;29.07;5.83;;;14.80;59.70;;;;;;5092458;28;20334;-92
2023/04/11 08:43:24;;;;;;;33.77;7.10;;;14.80;59.70;;;;;;5091664;28;20202;-91
2023/04/11 08:45:51;;;;;;;30.93;6.47;;;14.80;59.80;;;;;;5105679;28;20725;-90
2023/04/11 08:48:20;;;;;;;31.07;6.83;;;14.80;59.70;;;;;;5112288;28;20293;-90
2023/04/11 08:50:49;;;;;;;32.03;6.47;;;14.80;59.80;;;;;;5111666;28;20245;-90
2023/04/11 08:53:20;;;;;;;30.37;6.43;;;14.80;59.80;;;;;;5111500;28;21051;-90
2023/04/11 08:55:47;;;;;;;24.30;5.70;;;14.90;59.90;;;;;;5098275;28;20230;-90
2023/04/11 08:58:14;;;;;;;29.73;6.20;;;14.90;59.90;;;;;;5102122;28;20650;-90
2023/04/11 09:00:41;;;;;;;37.53;7.07;;;14.80;59.90;;;;;;5090553;28;20549;-91
2023/04/11 09:03:10;;;;;;;25.40;6.00;;;14.90;60.00;;;;;;5098121;28;20209;-90
2023/04/11 09:05:39;;;;;;;25.93;5.97;;;15.00;60.10;;;;;;5111675;28;20806;-91
2023/04/11 09:08:09;;;;;;;36.57;6.93;;;15.00;60.10;;;;;;5095700;28;20697;-90
2023/04/11 09:10:37;;;;;;;28.40;6.40;;;15.00;60.10;;;;;;5091175;28;20202;-90
2023/04/11 09:13:20;;;;;;;29.50;6.10;;;15.00;60.10;;;;;;5095062;28;20200;-90
2023/04/11 09:15:47;;;;;;;28.87;6.23;;;15.10;60.30;;;;;;5100178;28;20274;-90
2023/04/11 09:18:32;;;;;;;51.90;8.40;;;15.10;60.20;;;;;;5090400;28;20217;-92
2023/04/11 09:21:01;;;;;;;27.90;6.10;;;15.10;61.10;;;;;;5101225;28;20196;-90
2023/04/11 09:23:29;;;;;;;31.70;6.07;;;15.20;60.30;;;;;;5111872;28;20208;-91
2023/04/11 09:25:57;;;;;;;29.33;6.37;;;15.20;60.30;;;;;;5101049;28;20233;-92
2023/04/11 09:28:24;;;;;;;48.13;8.00;;;15.30;60.40;;;;;;5091626;28;20201;-90
2023/04/11 09:30:52;;;;;;;25.93;5.60;;;15.20;61.00;;;;;;5091591;28;20668;-90
2023/04/11 09:33:23;;;;;;;28.37;6.00;;;15.30;60.30;;;;;;5090789;28;20651;-89
2023/04/11 09:35:52;;;;;;;26.83;6.13;;;15.30;60.40;;;;;;5091265;28;20231;-90
2023/04/11 09:38:30;;;;;;;17.70;5.53;;;15.30;60.30;;;;;;5100530;28;20210;-90
2023/04/11 09:40:58;;;;;;;30.13;6.97;;;15.30;60.40;;;;;;5090939;28;20249;-90
2023/04/11 09:43:25;;;;;;;28.10;6.10;;;15.50;60.50;;;;;;5090535;28;20214;-90
2023/04/11 09:46:10;;;;;;;30.17;6.87;;;15.50;60.50;;;;;;5099876;28;20298;-90
2023/04/11 09:48:38;;;;;;;37.70;6.93;;;15.50;60.70;;;;;;5109960;28;20256;-89
2023/04/11 09:51:06;;;;;;;35.33;6.33;;;15.50;60.50;;;;;;5111033;28;20216;-90
2023/04/11 09:53:36;;;;;;;35.97;6.43;;;15.50;60.50;;;;;;5109756;28;20194;-89
2023/04/11 09:56:05;;;;;;;51.87;8.00;;;15.60;60.60;;;;;;5107033;28;20719;-90
2023/04/11 09:58:33;;;;;;;27.70;6.00;;;15.60;60.60;;;;;;5105673;28;20628;-88
2023/04/11 10:01:00;;;;;;;30.00;5.83;;;15.60;60.50;;;;;;5100277;28;20203;-90
2023/04/11 10:03:29;;;;;;;28.20;6.17;;;15.70;60.60;;;;;;5108913;28;20220;-89
2023/04/11 10:05:57;;;;;;;29.33;6.20;;;15.70;60.60;;;;;;5110278;28;20205;-90
2023/04/11 10:08:31;;;;;;;30.47;6.37;;;15.70;60.60;;;;;;5109939;28;20205;-90
2023/04/11 10:11:00;;;;;;;27.87;6.20;;;15.70;60.60;;;;;;5110524;28;20612;-90
2023/04/11 10:13:49;;;;;;;34.30;6.17;;;15.80;60.70;;;;;;5105727;28;20196;-90
2023/04/11 10:16:17;;;;;;;50.87;8.20;;;15.80;60.80;;;;;;5087667;28;20222;-90
2023/04/11 10:19:29;;;;;;;41.23;6.60;;;15.90;60.80;;;;;;5091823;28;20197;-89
2023/04/11 10:21:56;;;;;;;51.87;7.80;;;15.90;60.80;;;;;;5055072;28;20201;-88
2023/04/11 10:24:25;;;;;;;23.27;5.97;;;16.00;60.80;;;;;;5089955;28;20199;-89
2023/04/11 10:26:55;;;;;;;28.93;6.00;;;15.90;60.70;;;;;;5098515;28;20635;-90
2023/04/11 10:29:51;;;;;;;29.07;5.83;;;16.00;60.80;;;;;;5097487;28;20190;-89
2023/04/11 10:32:20;;;;;;;30.87;6.03;;;16.10;61.00;;;;;;5094450;28;20342;-88
2023/04/11 10:35:30;;;;;;;20.70;5.87;;;16.10;60.80;;;;;;5090137;28;20249;-89
2023/04/11 10:37:57;;;;;;;24.07;5.43;;;16.10;61.00;;;;;;5089380;28;20202;-89
2023/04/11 10:40:25;;;;;;;23.13;5.57;;;16.10;60.80;;;;;;5089566;28;20199;-88
2023/04/11 10:42:53;;;;;;;27.63;5.57;;;16.20;60.90;;;;;;5088860;28;20260;-89
2023/04/11 10:45:23;;;;;;;27.23;5.73;;;16.20;60.90;;;;;;5104729;28;20205;-89
2023/04/11 10:48:09;;;;;;;30.10;5.77;;;16.20;61.70;;;;;;5109720;28;20198;-90
2023/04/11 10:50:41;;;;;;;34.00;6.00;;;16.30;61.00;;;;;;5108868;28;20224;-89
2023/04/11 10:53:33;;;;;;;39.23;6.23;;;16.30;61.00;;;;;;5106451;28;20656;-90
2023/04/11 10:56:01;;;;;;;33.03;5.80;;;16.30;61.00;;;;;;5107455;27;20666;-89
2023/04/11 10:58:37;;;;;;;31.13;6.47;;;16.40;61.00;;;;;;5097792;28;20207;-89
2023/04/11 11:01:15;;;;;;;28.33;5.53;;;16.40;61.00;;;;;;5088937;28;20283;-89
2023/04/11 11:03:52;;;;;;;32.10;5.87;;;16.50;61.10;;;;;;5103562;28;20205;-89
2023/04/11 11:06:20;;;;;;;30.40;6.00;;;16.50;61.10;;;;;;5099648;28;20207;-88
2023/04/11 11:08:47;;;;;;;28.17;4.97;;;16.50;61.00;;;;;;5088777;28;20263;-89
2023/04/11 11:11:15;;;;;;;31.43;5.90;;;16.70;61.20;;;;;;5089156;28;20242;-89
2023/04/11 11:13:45;;;;;;;22.53;5.23;;;16.60;61.10;;;;;;5100395;28;20658;-90
2023/04/11 11:16:15;;;;;;;25.10;5.20;;;16.60;61.10;;;;;;5088311;28;20243;-90
2023/04/11 11:18:46;;;;;;;32.80;6.17;;;16.70;61.10;;;;;;5105123;28;20208;-89
2023/04/11 11:21:15;;;;;;;25.97;5.93;;;16.70;61.10;;;;;;5088626;28;20209;-89
2023/04/11 11:23:56;;;;;;;29.30;5.77;;;16.70;61.10;;;;;;5090188;28;20194;-89
2023/04/11 11:26:35;;;;;;;26.57;5.50;;;16.70;61.40;;;;;;5092815;28;20733;-89
2023/04/11 11:29:07;;;;;;;29.47;5.80;;;16.80;61.10;;;;;;5104693;28;20198;-90
2023/04/11 11:31:37;;;;;;;29.77;6.37;;;16.80;61.00;;;;;;5109488;28;20204;-89
2023/04/11 11:34:04;;;;;;;32.47;6.20;;;16.80;61.00;;;;;;5101282;28;20208;-88
2023/04/11 11:36:34;;;;;;;42.60;6.87;;;16.80;61.00;;;;;;5104158;28;20227;-89
2023/04/11 11:39:03;;;;;;;36.03;6.17;;;16.90;61.00;;;;;;5088292;28;20205;-89
2023/04/11 11:41:30;;;;;;;25.50;5.60;;;16.90;61.00;;;;;;5088640;28;20206;-90
2023/04/11 11:43:57;;;;;;;33.43;6.00;;;16.90;61.00;;;;;;5103605;28;20203;-88
2023/04/11 11:46:28;;;;;;;29.90;5.83;;;16.90;61.00;;;;;;5108924;28;20216;-90
2023/04/11 11:49:00;;;;;;;30.73;5.83;;;17.00;61.10;;;;;;5101590;28;20629;-89
2023/04/11 11:51:27;;;;;;;28.20;6.00;;;17.00;61.00;;;;;;5103733;28;20210;-89
2023/04/11 11:54:04;;;;;;;34.27;6.53;;;17.00;61.00;;;;;;5094709;28;20213;-89
2023/04/11 11:56:31;;;;;;;26.20;5.27;;;17.00;61.00;;;;;;5107380;28;20244;-90
2023/04/11 11:58:58;;;;;;;24.90;5.80;;;17.00;60.90;;;;;;5093871;28;20386;-90
2023/04/11 12:01:26;;;;;;;33.90;6.20;;;17.00;60.90;;;;;;5087566;28;20690;-90
2023/04/11 12:03:53;;;;;;;26.40;5.07;;;17.10;61.00;;;;;;5088252;28;20571;-91
2023/04/11 12:06:21;;;;;;;43.93;6.77;;;17.10;61.00;;;;;;5087137;28;20198;-90
2023/04/11 12:08:52;;;;;;;24.83;5.40;;;17.10;61.00;;;;;;5088600;28;20200;-92
2023/04/11 12:11:19;;;;;;;32.53;6.50;;;17.10;61.00;;;;;;5089014;28;20203;-93
2023/04/11 12:13:52;;;;;;;30.57;6.07;;;17.20;61.00;;;;;;5086986;28;20201;-91
2023/04/11 12:16:21;;;;;;;30.27;6.40;;;17.20;61.00;;;;;;5088001;28;20238;-92
2023/04/11 12:18:50;;;;;;;24.97;5.00;;;17.20;61.00;;;;;;5088322;28;20652;-90
2023/04/11 12:21:17;;;;;;;31.07;5.57;;;17.10;60.80;;;;;;5088139;28;20288;-92
2023/04/11 12:23:44;;;;;;;28.17;5.90;;;17.20;61.00;;;;;;5087538;28;20219;-92
2023/04/11 12:26:12;;;;;;;31.30;5.47;;;17.20;60.90;;;;;;5087769;28;20230;-92
2023/04/11 12:28:39;;;;;;;22.37;5.00;;;17.20;60.90;;;;;;5093828;28;20215;-91
2023/04/11 12:31:06;;;;;;;38.17;6.47;;;17.40;61.10;;;;;;5106385;28;20290;-92
2023/04/11 12:33:33;;;;;;;24.77;5.53;;;17.20;60.90;;;;;;5103031;28;20268;-91
2023/04/11 12:36:01;;;;;;;38.23;6.33;;;17.30;60.90;;;;;;5098921;28;20209;-91
2023/04/11 12:38:28;;;;;;;34.27;6.33;;;17.30;60.90;;;;;;5095847;28;20206;-91
2023/04/11 12:40:56;;;;;;;29.33;5.97;;;17.40;61.00;;;;;;5112190;28;20200;-91
2023/04/11 12:43:23;;;;;;;25.17;5.23;;;17.30;60.90;;;;;;5099332;28;20289;-91